createdAt,value
2023-04-14T00:02:03.041Z,100.00
2023-04-14T00:04:30.889Z,100.00
2023-04-14T00:06:57.447Z,100.00
2023-04-14T00:09:24.504Z,100.00
2023-04-14T00:11:51.094Z,100.00
2023-04-14T00:14:19.349Z,100.00
2023-04-14T00:16:45.761Z,100.00
2023-04-14T00:19:12.859Z,100.00
2023-04-14T00:21:39.257Z,100.00
2023-04-14T00:24:07.158Z,100.00
2023-04-14T00:26:33.855Z,100.00
2023-04-14T00:29:00.397Z,100.00
2023-04-14T00:31:27.348Z,100.00
2023-04-14T00:33:53.745Z,100.00
2023-04-14T00:36:20.169Z,100.00
2023-04-14T00:38:46.872Z,100.00
2023-04-14T00:41:13.276Z,100.00
2023-04-14T00:43:39.616Z,100.00
2023-04-14T00:46:06.379Z,100.00
2023-04-14T00:48:32.896Z,100.00
2023-04-14T00:50:59.530Z,100.00
2023-04-14T00:53:26.592Z,100.00
2023-04-14T00:55:53.074Z,100.00
2023-04-14T00:58:19.839Z,100.00
2023-04-14T01:00:48.844Z,100.00
2023-04-14T01:03:15.435Z,100.00
2023-04-14T01:05:41.929Z,100.00
2023-04-14T01:08:08.455Z,100.00
2023-04-14T01:10:40.951Z,100.00
2023-04-14T01:13:39.696Z,100.00
2023-04-14T01:16:28.415Z,100.00
2023-04-14T01:19:17.053Z,100.00
2023-04-14T01:21:49.860Z,100.00
2023-04-14T01:24:28.604Z,100.00
2023-04-14T01:27:07.916Z,100.00
2023-04-14T01:29:44.274Z,100.00
2023-04-14T01:32:14.733Z,100.00
2023-04-14T01:34:50.374Z,100.00
2023-04-14T01:37:27.701Z,100.00
2023-04-14T01:39:55.118Z,100.00
2023-04-14T01:42:30.004Z,100.00
2023-04-14T01:45:02.417Z,100.00
2023-04-14T01:47:30.523Z,100.00
2023-04-14T01:49:59.356Z,100.00
2023-04-14T01:52:27.287Z,100.00
2023-04-14T01:54:55.862Z,100.00
2023-04-14T01:57:24.338Z,100.00
2023-04-14T01:59:57.879Z,100.00
2023-04-14T02:02:26.015Z,100.00
2023-04-14T02:04:55.004Z,100.00
2023-04-14T02:07:24.638Z,100.00
2023-04-14T02:09:53.728Z,100.00
2023-04-14T02:12:23.629Z,100.00
2023-04-14T02:14:51.616Z,100.00
2023-04-14T02:17:19.962Z,100.00
2023-04-14T02:19:48.171Z,100.00
2023-04-14T02:22:15.000Z,100.00
2023-04-14T02:24:41.702Z,100.00
2023-04-14T02:27:15.817Z,100.00
2023-04-14T02:29:48.364Z,100.00
2023-04-14T02:32:27.134Z,100.00
2023-04-14T02:35:10.524Z,100.00
2023-04-14T02:37:41.576Z,100.00
2023-04-14T02:40:15.377Z,100.00
2023-04-14T02:42:48.542Z,100.00
2023-04-14T02:45:22.967Z,100.00
2023-04-14T02:47:54.695Z,100.00
2023-04-14T02:50:22.599Z,100.00
2023-04-14T02:52:52.219Z,100.00
2023-04-14T02:55:20.431Z,100.00
2023-04-14T02:57:47.917Z,100.00
2023-04-14T03:00:15.425Z,100.00
2023-04-14T03:02:43.783Z,100.00
2023-04-14T03:05:10.939Z,100.00
2023-04-14T03:07:38.107Z,100.00
2023-04-14T03:10:08.563Z,100.00
2023-04-14T03:12:36.888Z,100.00
2023-04-14T03:15:03.823Z,100.00
2023-04-14T03:17:32.193Z,100.00
2023-04-14T03:19:59.373Z,100.00
2023-04-14T03:22:27.140Z,100.00
2023-04-14T03:24:54.136Z,100.00
2023-04-14T03:27:22.654Z,100.00
2023-04-14T03:29:53.570Z,100.00
2023-04-14T03:32:22.091Z,100.00
2023-04-14T03:34:53.359Z,100.00
2023-04-14T03:37:24.737Z,100.00
2023-04-14T03:39:52.263Z,100.00
2023-04-14T03:42:20.186Z,100.00
2023-04-14T03:44:47.185Z,100.00
2023-04-14T03:47:13.850Z,100.00
2023-04-14T03:49:41.503Z,100.00
2023-04-14T03:52:12.215Z,100.00
2023-04-14T03:54:41.711Z,100.00
2023-04-14T03:57:10.462Z,100.00
2023-04-14T03:59:39.177Z,100.00
2023-04-14T04:02:07.449Z,100.00
2023-04-14T04:04:35.639Z,100.00
2023-04-14T04:07:02.907Z,100.00
2023-04-14T04:09:33.453Z,100.00
2023-04-14T04:12:03.510Z,100.00
2023-04-14T04:14:32.608Z,100.00
2023-04-14T04:17:05.683Z,100.00
2023-04-14T04:19:33.411Z,100.00
2023-04-14T04:22:01.332Z,100.00
2023-04-14T04:24:31.912Z,100.00
2023-04-14T04:26:58.975Z,100.00
2023-04-14T04:29:26.677Z,100.00
2023-04-14T04:31:55.194Z,100.00
2023-04-14T04:34:22.703Z,100.00
2023-04-14T04:36:49.746Z,100.00
2023-04-14T04:39:16.137Z,100.00
2023-04-14T04:41:42.695Z,100.00
2023-04-14T04:44:09.095Z,100.00
2023-04-14T04:46:54.933Z,100.00
2023-04-14T04:49:22.228Z,100.00
2023-04-14T04:51:49.236Z,100.00
2023-04-14T04:54:18.722Z,100.00
2023-04-14T04:56:45.468Z,100.00
2023-04-14T04:59:13.146Z,100.00
2023-04-14T05:01:39.978Z,100.00
2023-04-14T05:04:07.106Z,100.00
2023-04-14T05:06:36.943Z,100.00
2023-04-14T05:09:03.589Z,100.00
2023-04-14T05:11:30.358Z,100.00
2023-04-14T05:13:57.059Z,100.00
2023-04-14T05:16:24.026Z,100.00
2023-04-14T05:18:50.561Z,100.00
2023-04-14T05:21:17.285Z,100.00
2023-04-14T05:23:45.001Z,100.00
2023-04-14T05:28:42.918Z,100.00
2023-04-14T05:31:09.420Z,100.00
2023-04-14T05:33:35.998Z,100.00
2023-04-14T05:36:02.436Z,100.00
2023-04-14T05:38:29.128Z,100.00
2023-04-14T05:40:55.554Z,100.00
2023-04-14T05:43:22.110Z,100.00
2023-04-14T05:45:48.940Z,100.00
2023-04-14T05:48:15.572Z,100.00
2023-04-14T05:50:41.924Z,100.00
2023-04-14T05:53:08.440Z,100.00
2023-04-14T05:55:34.850Z,100.00
2023-04-14T05:58:01.516Z,100.00
2023-04-14T06:00:28.547Z,100.00
2023-04-14T06:02:55.179Z,100.00
2023-04-14T06:05:21.981Z,100.00
2023-04-14T06:07:48.616Z,100.00
2023-04-14T06:10:15.422Z,100.00
2023-04-14T06:12:42.152Z,100.00
2023-04-14T06:15:09.117Z,100.00
2023-04-14T06:17:35.578Z,100.00
2023-04-14T06:20:02.288Z,100.00
2023-04-14T06:22:28.921Z,100.00
2023-04-14T06:24:56.351Z,100.00
2023-04-14T06:27:23.703Z,100.00
2023-04-14T06:29:50.557Z,100.00
2023-04-14T06:32:17.463Z,100.00
2023-04-14T06:34:44.025Z,100.00
2023-04-14T06:37:10.541Z,100.00
2023-04-14T06:39:37.131Z,100.00
2023-04-14T06:42:03.697Z,100.00
2023-04-14T06:44:30.244Z,100.00
2023-04-14T06:46:57.239Z,100.00
2023-04-14T06:49:23.881Z,100.00
2023-04-14T06:51:50.418Z,100.00
2023-04-14T06:54:16.985Z,100.00
2023-04-14T06:56:43.394Z,100.00
2023-04-14T06:59:10.116Z,100.00
2023-04-14T07:01:36.879Z,100.00
2023-04-14T07:04:06.787Z,100.00
2023-04-14T07:06:33.864Z,100.00
2023-04-14T07:09:00.236Z,100.00
2023-04-14T07:11:26.866Z,100.00
2023-04-14T07:13:53.160Z,100.00
2023-04-14T07:16:19.791Z,100.00
2023-04-14T07:18:46.292Z,100.00
2023-04-14T07:21:12.812Z,100.00
2023-04-14T07:23:39.477Z,100.00
2023-04-14T07:26:06.293Z,100.00
2023-04-14T07:28:32.853Z,100.00
2023-04-14T07:30:59.421Z,100.00
2023-04-14T07:33:26.172Z,100.00
2023-04-14T07:36:01.119Z,100.00
2023-04-14T07:38:29.144Z,100.00
2023-04-14T07:40:55.467Z,100.00
2023-04-14T07:43:21.958Z,100.00
2023-04-14T07:45:48.280Z,100.00
2023-04-14T07:48:14.682Z,100.00
2023-04-14T07:50:41.221Z,100.00
2023-04-14T07:53:07.654Z,100.00
2023-04-14T07:55:34.167Z,100.00
2023-04-14T07:58:00.979Z,100.00
2023-04-14T08:00:27.346Z,100.00
2023-04-14T08:02:54.182Z,100.00
2023-04-14T08:05:20.923Z,100.00
2023-04-14T08:07:47.340Z,100.00
2023-04-14T08:10:13.778Z,100.00
2023-04-14T08:12:40.136Z,100.00
2023-04-14T08:15:07.084Z,100.00
2023-04-14T08:17:33.483Z,100.00
2023-04-14T08:20:00.215Z,100.00
2023-04-14T08:22:26.963Z,100.00
2023-04-14T08:24:54.969Z,100.00
2023-04-14T08:27:21.518Z,100.00
2023-04-14T08:29:48.845Z,100.00
2023-04-14T08:32:15.278Z,100.00
2023-04-14T08:35:38.576Z,100.00
2023-04-14T08:37:30.510Z,100.00
2023-04-14T08:39:58.281Z,100.00
2023-04-14T08:42:25.002Z,100.00
2023-04-14T08:44:51.703Z,100.00
2023-04-14T08:47:19.987Z,100.00
2023-04-14T08:49:55.938Z,100.00
2023-04-14T08:52:27.287Z,100.00
2023-04-14T08:54:57.087Z,100.00
2023-04-14T08:57:25.848Z,100.00
2023-04-14T08:59:54.509Z,100.00
2023-04-14T09:02:21.757Z,100.00
2023-04-14T09:04:49.538Z,100.00
2023-04-14T09:07:17.352Z,100.00
2023-04-14T09:09:44.834Z,100.00
2023-04-14T09:12:13.551Z,100.00
2023-04-14T09:14:40.353Z,100.00
2023-04-14T09:17:07.470Z,100.00
2023-04-14T09:19:34.874Z,100.00
2023-04-14T09:22:02.624Z,100.00
2023-04-14T09:24:32.395Z,99.37
2023-04-14T09:27:04.919Z,100.00
2023-04-14T09:29:35.484Z,100.00
2023-04-14T09:32:05.300Z,100.00
2023-04-14T09:34:31.886Z,95.88
2023-04-14T09:37:07.552Z,98.34
2023-04-14T09:39:35.434Z,99.15
2023-04-14T09:42:03.412Z,99.56
2023-04-14T09:44:31.710Z,94.79
2023-04-14T09:47:06.839Z,97.22
2023-04-14T09:49:34.796Z,96.81
2023-04-14T09:52:09.192Z,96.44
2023-04-14T09:54:36.096Z,95.79
2023-04-14T09:57:02.832Z,88.01
2023-04-14T09:59:30.633Z,87.64
2023-04-14T10:01:59.189Z,94.20
2023-04-14T10:04:29.123Z,90.39
2023-04-14T10:06:57.485Z,82.27
2023-04-14T10:09:27.944Z,75.87
2023-04-14T10:12:12.334Z,82.79
2023-04-14T10:14:40.527Z,82.72
2023-04-14T10:17:07.708Z,72.28
2023-04-14T10:19:37.602Z,72.31
2023-04-14T10:22:06.014Z,78.19
2023-04-14T10:24:35.355Z,83.29
2023-04-14T10:27:03.480Z,86.08
2023-04-14T10:29:30.950Z,88.25
2023-04-14T10:32:06.613Z,88.59
2023-04-14T10:34:35.492Z,86.49
2023-04-14T10:37:19.542Z,84.61
2023-04-14T10:39:55.049Z,80.81
2023-04-14T10:42:29.246Z,79.04
2023-04-14T10:45:06.659Z,74.30
2023-04-14T10:47:33.683Z,60.70
2023-04-14T10:50:11.119Z,60.15
2023-04-14T10:52:37.806Z,60.17
2023-04-14T10:55:06.187Z,66.23
2023-04-14T10:57:38.302Z,66.07
2023-04-14T11:00:25.741Z,57.93
2023-04-14T11:03:01.880Z,58.99
2023-04-14T11:05:29.806Z,56.47
2023-04-14T11:07:58.756Z,59.79
2023-04-14T11:10:30.916Z,59.16
2023-04-14T11:12:58.195Z,52.49
2023-04-14T11:15:42.718Z,48.33
2023-04-14T11:18:30.276Z,45.10
2023-04-14T11:21:16.260Z,43.29
2023-04-14T11:23:43.114Z,46.34
2023-04-14T11:26:11.138Z,45.94
2023-04-14T11:28:44.821Z,44.05
2023-04-14T11:31:13.155Z,42.76
2023-04-14T11:33:40.802Z,42.42
2023-04-14T11:36:09.679Z,46.32
2023-04-14T11:38:37.088Z,49.93
2023-04-14T11:41:04.232Z,54.89
2023-04-14T11:43:30.884Z,57.81
2023-04-14T11:46:01.159Z,57.46
2023-04-14T11:48:29.396Z,59.88
2023-04-14T11:50:55.903Z,64.33
2023-04-14T11:53:22.355Z,57.34
2023-04-14T11:55:51.146Z,52.21
2023-04-14T11:58:22.658Z,49.79
2023-04-14T12:00:49.659Z,47.64
2023-04-14T12:03:16.732Z,47.52
2023-04-14T12:05:43.879Z,52.47
2023-04-14T12:08:12.006Z,50.83
2023-04-14T12:10:40.681Z,50.78
2023-04-14T12:13:11.476Z,54.76
2023-04-14T12:15:41.824Z,48.08
2023-04-14T12:18:13.367Z,45.01
2023-04-14T12:20:45.834Z,42.02
2023-04-14T12:23:13.099Z,40.88
2023-04-14T12:25:40.160Z,38.02
2023-04-14T12:28:06.811Z,35.64
2023-04-14T12:30:34.340Z,34.73
2023-04-14T12:33:08.952Z,35.70
2023-04-14T12:35:36.640Z,37.69
2023-04-14T12:38:11.927Z,37.65
2023-04-14T12:40:42.734Z,37.18
2023-04-14T12:43:09.563Z,37.40
2023-04-14T12:45:40.263Z,38.74
2023-04-14T12:48:06.977Z,37.35
2023-04-14T12:50:33.496Z,37.15
2023-04-14T12:53:00.624Z,37.87
2023-04-14T12:55:31.742Z,37.61
2023-04-14T12:57:59.100Z,38.34
2023-04-14T13:00:27.576Z,37.67
2023-04-14T13:02:55.817Z,37.99
2023-04-14T13:05:23.121Z,37.90
2023-04-14T13:07:49.720Z,36.87
2023-04-14T13:10:16.495Z,37.06
2023-04-14T13:12:42.991Z,37.69
2023-04-14T13:16:12.011Z,37.06
2023-04-14T13:17:56.849Z,37.68
2023-04-14T13:20:23.395Z,37.71
2023-04-14T13:22:51.078Z,38.93
2023-04-14T13:25:17.810Z,38.31
2023-04-14T13:27:44.358Z,38.97
2023-04-14T13:30:11.929Z,38.33
2023-04-14T13:32:38.539Z,37.71
2023-04-14T13:35:05.673Z,37.17
2023-04-14T13:37:32.140Z,38.41
2023-04-14T13:39:58.716Z,35.61
2023-04-14T13:42:25.263Z,35.94
2023-04-14T13:44:51.888Z,34.81
2023-04-14T13:47:18.462Z,34.03
2023-04-14T13:49:45.074Z,35.27
2023-04-14T13:52:11.514Z,34.26
2023-04-14T13:54:37.961Z,33.79
2023-04-14T13:57:04.814Z,35.58
2023-04-14T13:59:31.441Z,34.59
2023-04-14T14:01:58.134Z,34.56
2023-04-14T14:04:25.279Z,34.95
2023-04-14T14:06:52.075Z,35.07
2023-04-14T14:09:18.524Z,34.64
2023-04-14T14:11:45.035Z,33.41
2023-04-14T14:14:11.988Z,34.24
2023-04-14T14:16:38.829Z,34.38
2023-04-14T14:19:05.379Z,33.49
2023-04-14T14:21:36.991Z,32.97
2023-04-14T14:24:03.747Z,34.30
2023-04-14T14:26:30.642Z,34.83
2023-04-14T14:28:57.191Z,34.58
2023-04-14T14:31:23.816Z,34.61
2023-04-14T14:33:50.273Z,34.92
2023-04-14T14:36:17.166Z,33.94
2023-04-14T14:38:43.588Z,33.11
2023-04-14T14:41:10.127Z,34.34
2023-04-14T14:43:36.808Z,34.14
2023-04-14T14:46:03.640Z,34.88
2023-04-14T14:48:30.230Z,34.86
2023-04-14T14:50:56.738Z,32.74
2023-04-14T14:53:23.395Z,31.89
2023-04-14T14:55:49.928Z,32.27
2023-04-14T14:58:17.122Z,33.65
2023-04-14T15:00:43.630Z,34.60
2023-04-14T15:03:10.386Z,34.03
2023-04-14T15:05:39.866Z,33.58
2023-04-14T15:08:06.772Z,33.10
2023-04-14T15:10:33.387Z,33.96
2023-04-14T15:13:01.249Z,34.47
2023-04-14T15:15:27.777Z,34.18
2023-04-14T15:17:54.672Z,34.23
2023-04-14T15:20:21.399Z,34.15
2023-04-14T15:22:48.571Z,33.36
2023-04-14T15:25:26.620Z,33.48
2023-04-14T15:27:56.012Z,34.34
2023-04-14T15:30:24.005Z,35.06
2023-04-14T15:32:51.138Z,34.73
2023-04-14T15:35:17.952Z,34.70
2023-04-14T15:37:44.472Z,34.26
2023-04-14T15:40:11.291Z,33.12
2023-04-14T15:42:40.938Z,33.49
2023-04-14T15:45:10.016Z,33.80
2023-04-14T15:47:36.568Z,33.97
2023-04-14T15:50:07.533Z,33.41
2023-04-14T15:52:37.086Z,35.05
2023-04-14T15:55:03.837Z,35.51
2023-04-14T15:57:30.316Z,34.85
2023-04-14T15:59:57.179Z,34.12
2023-04-14T16:02:26.658Z,35.66
2023-04-14T16:04:53.505Z,35.33
2023-04-14T16:07:19.960Z,34.41
2023-04-14T16:09:46.609Z,33.98
2023-04-14T16:12:13.027Z,34.11
2023-04-14T16:14:39.817Z,33.90
2023-04-14T16:17:06.511Z,33.80
2023-04-14T16:19:33.246Z,33.59
2023-04-14T16:21:59.668Z,33.57
2023-04-14T16:24:26.499Z,34.57
2023-04-14T16:26:52.974Z,33.79
2023-04-14T16:29:19.480Z,33.25
2023-04-14T16:31:46.389Z,34.46
2023-04-14T16:34:12.930Z,34.98
2023-04-14T16:36:39.808Z,34.47
2023-04-14T16:39:06.381Z,34.22
2023-04-14T16:41:32.761Z,35.60
2023-04-14T16:43:59.353Z,34.38
2023-04-14T16:46:26.355Z,33.48
2023-04-14T16:48:52.903Z,34.06
2023-04-14T16:51:19.391Z,34.06
2023-04-14T16:53:45.840Z,34.33
2023-04-14T16:56:12.429Z,34.10
2023-04-14T16:58:39.046Z,34.10
2023-04-14T17:01:06.871Z,34.89
2023-04-14T17:03:34.206Z,34.50
2023-04-14T17:06:00.945Z,34.61
2023-04-14T17:08:27.342Z,34.19
2023-04-14T17:10:53.929Z,34.57
2023-04-14T17:13:20.533Z,35.43
2023-04-14T17:15:55.672Z,35.70
2023-04-14T17:18:30.261Z,36.57
2023-04-14T17:20:57.912Z,35.89
2023-04-14T17:23:24.682Z,36.06
2023-04-14T17:25:52.179Z,36.15
2023-04-14T17:28:18.932Z,35.40
2023-04-14T17:30:45.343Z,35.93
2023-04-14T17:33:11.807Z,37.37
2023-04-14T17:35:38.254Z,36.81
2023-04-14T17:38:04.840Z,36.30
2023-04-14T17:40:32.491Z,37.49
2023-04-14T17:42:58.926Z,37.31
2023-04-14T17:45:25.994Z,38.88
2023-04-14T17:47:53.312Z,38.69
2023-04-14T17:50:22.752Z,39.00
2023-04-14T17:52:50.847Z,38.05
2023-04-14T17:55:18.057Z,38.57
2023-04-14T17:57:44.923Z,39.46
2023-04-14T18:00:12.045Z,40.24
2023-04-14T18:02:38.822Z,41.84
2023-04-14T18:05:08.683Z,43.80
2023-04-14T18:07:35.575Z,46.56
2023-04-14T18:10:02.785Z,46.41
2023-04-14T18:12:29.219Z,49.72
2023-04-14T18:14:55.595Z,52.84
2023-04-14T18:17:22.437Z,57.14
2023-04-14T18:19:48.930Z,62.25
2023-04-14T18:22:15.690Z,65.47
2023-04-14T18:29:41.284Z,75.79
2023-04-14T18:32:07.657Z,80.94
2023-04-14T18:34:34.079Z,83.01
2023-04-14T18:37:01.091Z,85.36
2023-04-14T18:39:27.866Z,87.94
2023-04-14T18:41:54.331Z,89.07
2023-04-14T18:44:20.822Z,90.25
2023-04-14T18:46:47.308Z,90.22
2023-04-14T18:49:13.704Z,92.94
2023-04-14T18:51:40.159Z,94.54
2023-04-14T18:54:07.125Z,95.94
2023-04-14T18:56:33.636Z,96.87
2023-04-14T18:59:00.424Z,100.00
2023-04-14T19:01:27.225Z,100.00
2023-04-14T19:03:53.814Z,100.00
2023-04-14T19:06:20.652Z,100.00
2023-04-14T19:08:47.022Z,100.00
2023-04-14T19:11:13.444Z,100.00
2023-04-14T19:13:40.374Z,100.00
2023-04-14T19:16:07.827Z,100.00
2023-04-14T19:18:35.255Z,100.00
2023-04-14T19:21:02.085Z,100.00
2023-04-14T19:23:29.002Z,100.00
2023-04-14T19:25:55.707Z,100.00
2023-04-14T19:28:22.242Z,100.00
2023-04-14T19:30:48.852Z,100.00
2023-04-14T19:33:15.354Z,100.00
2023-04-14T19:35:41.766Z,100.00
2023-04-14T19:38:12.323Z,100.00
2023-04-14T19:40:46.845Z,100.00
2023-04-14T19:43:27.087Z,100.00
2023-04-14T19:45:57.723Z,100.00
2023-04-14T19:48:24.724Z,100.00
2023-04-14T19:50:55.455Z,100.00
2023-04-14T19:53:23.994Z,100.00
2023-04-14T19:55:51.762Z,100.00
2023-04-14T19:58:19.628Z,100.00
2023-04-14T20:00:48.370Z,100.00
2023-04-14T20:03:15.649Z,100.00
2023-04-14T20:05:42.198Z,100.00
2023-04-14T20:08:08.918Z,100.00
2023-04-14T20:10:36.053Z,100.00
2023-04-14T20:13:02.644Z,100.00
2023-04-14T20:15:29.132Z,100.00
2023-04-14T20:17:55.776Z,100.00
2023-04-14T20:20:22.462Z,100.00
2023-04-14T20:22:49.016Z,100.00
2023-04-14T20:25:15.580Z,100.00
2023-04-14T20:27:42.601Z,100.00
2023-04-14T20:30:09.512Z,100.00
2023-04-14T20:32:36.086Z,100.00
2023-04-14T20:35:02.508Z,100.00
2023-04-14T20:37:30.181Z,100.00
2023-04-14T20:39:57.071Z,100.00
2023-04-14T20:42:26.153Z,100.00
2023-04-14T20:44:52.811Z,100.00
2023-04-14T20:47:19.313Z,100.00
2023-04-14T20:49:45.808Z,100.00
2023-04-14T20:52:12.502Z,100.00
2023-04-14T20:54:38.909Z,100.00
2023-04-14T20:57:05.495Z,100.00
2023-04-14T20:59:32.934Z,100.00
2023-04-14T21:01:59.516Z,100.00
2023-04-14T21:04:26.592Z,100.00
2023-04-14T21:06:53.448Z,100.00
2023-04-14T21:09:20.011Z,100.00
2023-04-14T21:11:46.530Z,100.00
2023-04-14T21:15:28.893Z,100.00
2023-04-14T21:17:00.247Z,100.00
2023-04-14T21:19:26.846Z,100.00
2023-04-14T21:21:53.237Z,100.00
2023-04-14T21:24:19.843Z,100.00
2023-04-14T21:26:46.175Z,100.00
2023-04-14T21:29:12.714Z,100.00
2023-04-14T21:31:39.247Z,100.00
2023-04-14T21:34:05.999Z,100.00
2023-04-14T21:36:32.408Z,100.00
2023-04-14T21:38:58.813Z,100.00
2023-04-14T21:41:25.226Z,100.00
2023-04-14T21:43:51.656Z,100.00
2023-04-14T21:46:18.211Z,100.00
2023-04-14T21:48:44.655Z,100.00
2023-04-14T21:51:11.065Z,100.00
2023-04-14T21:53:37.788Z,100.00
2023-04-14T21:56:09.745Z,100.00
2023-04-14T21:58:37.457Z,100.00
2023-04-14T22:01:04.185Z,100.00
2023-04-14T22:03:30.771Z,100.00
2023-04-14T22:05:57.795Z,100.00
2023-04-14T22:08:24.578Z,100.00
2023-04-14T22:10:52.647Z,100.00
2023-04-14T22:13:19.128Z,100.00
2023-04-14T22:15:45.811Z,100.00
2023-04-14T22:18:12.441Z,100.00
2023-04-14T22:20:39.223Z,100.00
2023-04-14T22:23:06.046Z,100.00
2023-04-14T22:25:32.518Z,100.00
2023-04-14T22:27:59.250Z,100.00
2023-04-14T22:30:26.061Z,100.00
2023-04-14T22:32:52.565Z,100.00
2023-04-14T22:35:19.361Z,100.00
2023-04-14T22:37:45.751Z,100.00
2023-04-14T22:40:12.203Z,100.00
2023-04-14T22:42:38.903Z,100.00
2023-04-14T22:45:07.028Z,100.00
2023-04-14T22:47:33.922Z,100.00
2023-04-14T22:50:01.451Z,100.00
2023-04-14T22:52:28.036Z,100.00
2023-04-14T22:54:54.545Z,100.00
2023-04-14T22:57:21.005Z,100.00
2023-04-14T22:59:47.487Z,100.00
2023-04-14T23:02:14.058Z,100.00
2023-04-14T23:04:40.958Z,100.00
2023-04-14T23:07:07.883Z,100.00
2023-04-14T23:09:34.599Z,100.00
2023-04-14T23:12:03.946Z,100.00
2023-04-14T23:14:30.863Z,100.00
2023-04-14T23:16:57.320Z,100.00
2023-04-14T23:19:23.766Z,100.00
2023-04-14T23:21:50.158Z,100.00
2023-04-14T23:24:16.683Z,100.00
2023-04-14T23:26:43.091Z,100.00
2023-04-14T23:29:09.565Z,100.00
2023-04-14T23:31:36.044Z,100.00
2023-04-14T23:34:02.593Z,100.00
2023-04-14T23:36:29.159Z,100.00
2023-04-14T23:38:55.813Z,100.00
2023-04-14T23:41:22.344Z,100.00
2023-04-14T23:43:48.823Z,100.00
2023-04-14T23:46:15.594Z,100.00
2023-04-14T23:48:42.019Z,100.00
2023-04-14T23:51:15.457Z,100.00
2023-04-14T23:53:47.500Z,100.00
2023-04-14T23:56:14.163Z,100.00
2023-04-14T23:58:40.678Z,100.00
